sensor_id;sensor_type;location;lat;lon;timestamp;P1;durP1;ratioP1;P2;durP2;ratioP2
38302;SDS011;24103;42.454;27.400;2023-05-27T00:00:47;5.50;;;5.00;;
38302;SDS011;24103;42.454;27.400;2023-05-27T00:03:13;5.20;;;4.75;;
38302;SDS011;24103;42.454;27.400;2023-05-27T00:05:38;5.00;;;4.60;;
38302;SDS011;24103;42.454;27.400;2023-05-27T00:08:04;5.22;;;4.65;;
38302;SDS011;24103;42.454;27.400;2023-05-27T00:10:30;5.78;;;4.70;;
38302;SDS011;24103;42.454;27.400;2023-05-27T00:12:55;6.65;;;4.68;;
38302;SDS011;24103;42.454;27.400;2023-05-27T00:15:21;5.90;;;5.05;;
38302;SDS011;24103;42.454;27.400;2023-05-27T00:17:46;4.63;;;4.22;;
38302;SDS011;24103;42.454;27.400;2023-05-27T00:20:12;6.13;;;4.70;;
38302;SDS011;24103;42.454;27.400;2023-05-27T00:22:39;4.65;;;4.25;;
38302;SDS011;24103;42.454;27.400;2023-05-27T00:25:05;5.07;;;4.63;;
38302;SDS011;24103;42.454;27.400;2023-05-27T00:27:31;6.55;;;4.75;;
38302;SDS011;24103;42.454;27.400;2023-05-27T00:29:56;5.18;;;4.68;;
38302;SDS011;24103;42.454;27.400;2023-05-27T00:32:22;4.65;;;4.32;;
38302;SDS011;24103;42.454;27.400;2023-05-27T00:34:47;5.20;;;4.72;;
38302;SDS011;24103;42.454;27.400;2023-05-27T00:37:13;5.10;;;4.60;;
38302;SDS011;24103;42.454;27.400;2023-05-27T00:39:39;5.10;;;4.47;;
38302;SDS011;24103;42.454;27.400;2023-05-27T00:42:05;4.00;;;3.70;;
38302;SDS011;24103;42.454;27.400;2023-05-27T00:44:32;4.35;;;3.75;;
38302;SDS011;24103;42.454;27.400;2023-05-27T00:46:57;3.80;;;3.50;;
38302;SDS011;24103;42.454;27.400;2023-05-27T00:49:23;5.78;;;3.42;;
38302;SDS011;24103;42.454;27.400;2023-05-27T00:51:51;4.30;;;3.70;;
38302;SDS011;24103;42.454;27.400;2023-05-27T00:54:17;6.10;;;3.97;;
38302;SDS011;24103;42.454;27.400;2023-05-27T00:56:43;3.92;;;3.42;;
38302;SDS011;24103;42.454;27.400;2023-05-27T00:59:09;7.88;;;4.43;;
38302;SDS011;24103;42.454;27.400;2023-05-27T01:01:34;4.25;;;3.63;;
38302;SDS011;24103;42.454;27.400;2023-05-27T01:04:02;4.90;;;4.30;;
38302;SDS011;24103;42.454;27.400;2023-05-27T01:09:32;4.95;;;3.85;;
38302;SDS011;24103;42.454;27.400;2023-05-27T01:12:14;5.63;;;4.32;;
38302;SDS011;24103;42.454;27.400;2023-05-27T01:14:50;5.55;;;4.72;;
38302;SDS011;24103;42.454;27.400;2023-05-27T01:17:19;4.57;;;3.63;;
38302;SDS011;24103;42.454;27.400;2023-05-27T01:19:47;7.32;;;4.28;;
38302;SDS011;24103;42.454;27.400;2023-05-27T01:22:15;6.88;;;4.22;;
38302;SDS011;24103;42.454;27.400;2023-05-27T01:24:44;8.85;;;5.13;;
38302;SDS011;24103;42.454;27.400;2023-05-27T01:27:10;12.73;;;5.72;;
38302;SDS011;24103;42.454;27.400;2023-05-27T01:29:40;9.40;;;5.20;;
38302;SDS011;24103;42.454;27.400;2023-05-27T01:37:21;5.95;;;5.35;;
38302;SDS011;24103;42.454;27.400;2023-05-27T01:39:50;16.58;;;6.50;;
38302;SDS011;24103;42.454;27.400;2023-05-27T01:42:17;7.03;;;4.88;;
38302;SDS011;24103;42.454;27.400;2023-05-27T01:44:45;8.63;;;4.57;;
38302;SDS011;24103;42.454;27.400;2023-05-27T01:47:11;9.20;;;4.68;;
38302;SDS011;24103;42.454;27.400;2023-05-27T01:49:37;7.38;;;5.05;;
38302;SDS011;24103;42.454;27.400;2023-05-27T01:52:03;6.85;;;5.38;;
38302;SDS011;24103;42.454;27.400;2023-05-27T01:54:28;8.80;;;4.93;;
38302;SDS011;24103;42.454;27.400;2023-05-27T01:56:54;7.95;;;5.80;;
38302;SDS011;24103;42.454;27.400;2023-05-27T01:59:19;6.50;;;4.75;;
38302;SDS011;24103;42.454;27.400;2023-05-27T02:01:45;6.65;;;4.97;;
38302;SDS011;24103;42.454;27.400;2023-05-27T02:04:11;7.80;;;4.90;;
38302;SDS011;24103;42.454;27.400;2023-05-27T02:06:36;7.90;;;5.00;;
38302;SDS011;24103;42.454;27.400;2023-05-27T02:09:02;13.52;;;5.75;;
38302;SDS011;24103;42.454;27.400;2023-05-27T02:11:28;5.60;;;5.10;;
38302;SDS011;24103;42.454;27.400;2023-05-27T02:13:53;8.32;;;5.85;;
38302;SDS011;24103;42.454;27.400;2023-05-27T02:16:21;8.05;;;5.78;;
38302;SDS011;24103;42.454;27.400;2023-05-27T02:18:49;5.30;;;4.80;;
38302;SDS011;24103;42.454;27.400;2023-05-27T02:21:15;6.25;;;4.88;;
38302;SDS011;24103;42.454;27.400;2023-05-27T02:23:41;8.13;;;4.45;;
38302;SDS011;24103;42.454;27.400;2023-05-27T02:26:07;6.55;;;5.00;;
38302;SDS011;24103;42.454;27.400;2023-05-27T02:28:32;6.00;;;4.38;;
38302;SDS011;24103;42.454;27.400;2023-05-27T02:30:58;5.68;;;4.10;;
38302;SDS011;24103;42.454;27.400;2023-05-27T02:33:24;4.97;;;4.57;;
38302;SDS011;24103;42.454;27.400;2023-05-27T02:35:50;7.15;;;5.00;;
38302;SDS011;24103;42.454;27.400;2023-05-27T02:38:16;5.82;;;4.10;;
38302;SDS011;24103;42.454;27.400;2023-05-27T02:40:41;4.82;;;4.18;;
38302;SDS011;24103;42.454;27.400;2023-05-27T02:43:07;5.25;;;4.60;;
38302;SDS011;24103;42.454;27.400;2023-05-27T02:45:33;4.63;;;4.22;;
38302;SDS011;24103;42.454;27.400;2023-05-27T02:47:59;4.70;;;4.30;;
38302;SDS011;24103;42.454;27.400;2023-05-27T02:50:27;6.05;;;3.78;;
38302;SDS011;24103;42.454;27.400;2023-05-27T02:52:53;6.30;;;4.40;;
38302;SDS011;24103;42.454;27.400;2023-05-27T02:55:18;8.43;;;4.10;;
38302;SDS011;24103;42.454;27.400;2023-05-27T02:57:44;3.78;;;3.40;;
38302;SDS011;24103;42.454;27.400;2023-05-27T03:00:10;4.55;;;3.85;;
38302;SDS011;24103;42.454;27.400;2023-05-27T03:02:38;3.35;;;3.13;;
38302;SDS011;24103;42.454;27.400;2023-05-27T03:05:04;3.95;;;3.53;;
38302;SDS011;24103;42.454;27.400;2023-05-27T03:07:30;3.35;;;3.15;;
38302;SDS011;24103;42.454;27.400;2023-05-27T03:09:56;4.22;;;3.88;;
38302;SDS011;24103;42.454;27.400;2023-05-27T03:12:22;3.30;;;3.00;;
38302;SDS011;24103;42.454;27.400;2023-05-27T03:14:48;4.07;;;3.72;;
38302;SDS011;24103;42.454;27.400;2023-05-27T03:17:14;3.70;;;3.40;;
38302;SDS011;24103;42.454;27.400;2023-05-27T03:19:39;3.25;;;2.97;;
38302;SDS011;24103;42.454;27.400;2023-05-27T03:22:05;2.78;;;2.58;;
38302;SDS011;24103;42.454;27.400;2023-05-27T03:24:31;3.65;;;3.33;;
38302;SDS011;24103;42.454;27.400;2023-05-27T03:26:58;3.47;;;3.17;;
38302;SDS011;24103;42.454;27.400;2023-05-27T03:29:24;3.05;;;2.85;;
38302;SDS011;24103;42.454;27.400;2023-05-27T03:31:50;2.70;;;2.50;;
38302;SDS011;24103;42.454;27.400;2023-05-27T03:34:15;5.32;;;3.03;;
38302;SDS011;24103;42.454;27.400;2023-05-27T03:36:41;4.97;;;2.80;;
38302;SDS011;24103;42.454;27.400;2023-05-27T03:39:10;3.28;;;2.45;;
38302;SDS011;24103;42.454;27.400;2023-05-27T03:41:37;8.25;;;2.15;;
38302;SDS011;24103;42.454;27.400;2023-05-27T03:44:02;5.50;;;2.33;;
38302;SDS011;24103;42.454;27.400;2023-05-27T03:46:28;2.85;;;2.03;;
38302;SDS011;24103;42.454;27.400;2023-05-27T03:48:53;3.90;;;1.90;;
38302;SDS011;24103;42.454;27.400;2023-05-27T03:51:20;4.88;;;2.20;;
38302;SDS011;24103;42.454;27.400;2023-05-27T03:53:46;2.53;;;2.08;;
38302;SDS011;24103;42.454;27.400;2023-05-27T03:56:12;5.47;;;2.00;;
38302;SDS011;24103;42.454;27.400;2023-05-27T03:58:38;2.95;;;1.70;;
38302;SDS011;24103;42.454;27.400;2023-05-27T04:01:03;1.55;;;1.40;;
38302;SDS011;24103;42.454;27.400;2023-05-27T04:03:30;1.52;;;1.42;;
38302;SDS011;24103;42.454;27.400;2023-05-27T04:05:57;2.92;;;1.80;;
38302;SDS011;24103;42.454;27.400;2023-05-27T04:08:23;3.65;;;1.60;;
38302;SDS011;24103;42.454;27.400;2023-05-27T04:10:54;2.63;;;1.42;;
38302;SDS011;24103;42.454;27.400;2023-05-27T04:13:20;2.65;;;1.52;;
38302;SDS011;24103;42.454;27.400;2023-05-27T04:15:45;1.48;;;1.38;;
38302;SDS011;24103;42.454;27.400;2023-05-27T04:18:12;1.90;;;1.63;;
38302;SDS011;24103;42.454;27.400;2023-05-27T04:20:38;2.55;;;1.20;;
38302;SDS011;24103;42.454;27.400;2023-05-27T04:23:08;1.95;;;1.50;;
38302;SDS011;24103;42.454;27.400;2023-05-27T04:25:35;1.83;;;1.35;;
38302;SDS011;24103;42.454;27.400;2023-05-27T04:28:02;1.92;;;1.58;;
38302;SDS011;24103;42.454;27.400;2023-05-27T04:32:58;1.67;;;1.58;;
38302;SDS011;24103;42.454;27.400;2023-05-27T04:35:25;2.67;;;1.42;;
38302;SDS011;24103;42.454;27.400;2023-05-27T04:37:51;2.25;;;1.40;;
38302;SDS011;24103;42.454;27.400;2023-05-27T04:40:17;4.00;;;1.80;;
38302;SDS011;24103;42.454;27.400;2023-05-27T04:42:42;1.95;;;1.50;;
38302;SDS011;24103;42.454;27.400;2023-05-27T04:45:09;2.35;;;1.90;;
38302;SDS011;24103;42.454;27.400;2023-05-27T04:47:38;2.85;;;2.10;;
38302;SDS011;24103;42.454;27.400;2023-05-27T04:50:09;2.90;;;2.33;;
38302;SDS011;24103;42.454;27.400;2023-05-27T04:52:36;3.90;;;1.73;;
38302;SDS011;24103;42.454;27.400;2023-05-27T04:55:06;2.25;;;2.03;;
38302;SDS011;24103;42.454;27.400;2023-05-27T04:57:33;3.25;;;2.70;;
38302;SDS011;24103;42.454;27.400;2023-05-27T04:59:59;2.90;;;1.98;;
38302;SDS011;24103;42.454;27.400;2023-05-27T05:02:28;2.40;;;2.20;;
38302;SDS011;24103;42.454;27.400;2023-05-27T05:07:29;5.03;;;2.45;;
38302;SDS011;24103;42.454;27.400;2023-05-27T05:09:55;3.13;;;2.50;;
38302;SDS011;24103;42.454;27.400;2023-05-27T05:12:21;3.20;;;2.83;;
38302;SDS011;24103;42.454;27.400;2023-05-27T05:14:47;4.38;;;2.50;;
38302;SDS011;24103;42.454;27.400;2023-05-27T05:17:12;5.15;;;2.50;;
38302;SDS011;24103;42.454;27.400;2023-05-27T05:19:38;2.78;;;2.38;;
38302;SDS011;24103;42.454;27.400;2023-05-27T05:22:04;2.35;;;2.05;;
38302;SDS011;24103;42.454;27.400;2023-05-27T05:24:30;2.45;;;2.15;;
38302;SDS011;24103;42.454;27.400;2023-05-27T05:26:55;2.40;;;1.90;;
38302;SDS011;24103;42.454;27.400;2023-05-27T05:29:21;4.78;;;2.13;;
38302;SDS011;24103;42.454;27.400;2023-05-27T05:31:46;3.42;;;2.42;;
38302;SDS011;24103;42.454;27.400;2023-05-27T05:34:12;4.55;;;2.50;;
38302;SDS011;24103;42.454;27.400;2023-05-27T05:36:37;4.07;;;2.10;;
38302;SDS011;24103;42.454;27.400;2023-05-27T05:39:05;1.88;;;1.73;;
38302;SDS011;24103;42.454;27.400;2023-05-27T05:41:31;3.35;;;2.08;;
38302;SDS011;24103;42.454;27.400;2023-05-27T05:43:56;4.85;;;1.92;;
38302;SDS011;24103;42.454;27.400;2023-05-27T05:46:22;2.17;;;1.70;;
38302;SDS011;24103;42.454;27.400;2023-05-27T05:48:49;3.40;;;2.20;;
38302;SDS011;24103;42.454;27.400;2023-05-27T05:51:17;1.67;;;1.55;;
38302;SDS011;24103;42.454;27.400;2023-05-27T05:53:42;1.73;;;1.50;;
38302;SDS011;24103;42.454;27.400;2023-05-27T05:56:08;3.35;;;1.80;;
38302;SDS011;24103;42.454;27.400;2023-05-27T05:58:34;1.95;;;1.73;;
38302;SDS011;24103;42.454;27.400;2023-05-27T06:00:59;3.95;;;1.50;;
38302;SDS011;24103;42.454;27.400;2023-05-27T06:03:25;2.83;;;1.70;;
38302;SDS011;24103;42.454;27.400;2023-05-27T06:05:51;1.65;;;1.55;;
38302;SDS011;24103;42.454;27.400;2023-05-27T06:08:16;2.42;;;1.52;;
38302;SDS011;24103;42.454;27.400;2023-05-27T07:09:11;2.45;;;2.25;;
38302;SDS011;24103;42.454;27.400;2023-05-27T07:11:37;2.47;;;2.28;;
38302;SDS011;24103;42.454;27.400;2023-05-27T07:14:03;3.58;;;3.22;;
38302;SDS011;24103;42.454;27.400;2023-05-27T07:16:28;2.63;;;2.30;;
38302;SDS011;24103;42.454;27.400;2023-05-27T07:18:54;2.63;;;2.10;;
38302;SDS011;24103;42.454;27.400;2023-05-27T07:21:19;3.10;;;2.78;;
38302;SDS011;24103;42.454;27.400;2023-05-27T07:23:45;3.70;;;2.80;;
38302;SDS011;24103;42.454;27.400;2023-05-27T07:26:10;2.88;;;2.28;;
38302;SDS011;24103;42.454;27.400;2023-05-27T07:28:36;4.10;;;2.78;;
38302;SDS011;24103;42.454;27.400;2023-05-27T07:31:02;2.83;;;2.63;;
38302;SDS011;24103;42.454;27.400;2023-05-27T07:33:28;3.00;;;2.53;;
38302;SDS011;24103;42.454;27.400;2023-05-27T07:35:54;6.32;;;2.83;;
38302;SDS011;24103;42.454;27.400;2023-05-27T07:38:19;3.28;;;2.97;;
38302;SDS011;24103;42.454;27.400;2023-05-27T07:40:45;4.68;;;2.67;;
38302;SDS011;24103;42.454;27.400;2023-05-27T07:43:10;3.13;;;2.53;;
38302;SDS011;24103;42.454;27.400;2023-05-27T07:45:36;3.35;;;2.80;;
38302;SDS011;24103;42.454;27.400;2023-05-27T07:48:01;3.28;;;2.55;;
38302;SDS011;24103;42.454;27.400;2023-05-27T07:50:27;3.88;;;2.55;;
38302;SDS011;24103;42.454;27.400;2023-05-27T07:52:52;2.60;;;2.40;;
38302;SDS011;24103;42.454;27.400;2023-05-27T07:55:18;2.90;;;2.70;;
38302;SDS011;24103;42.454;27.400;2023-05-27T07:57:43;5.97;;;3.03;;
38302;SDS011;24103;42.454;27.400;2023-05-27T08:00:09;2.92;;;2.72;;
38302;SDS011;24103;42.454;27.400;2023-05-27T08:02:35;8.48;;;3.38;;
38302;SDS011;24103;42.454;27.400;2023-05-27T08:05:01;4.72;;;3.33;;
38302;SDS011;24103;42.454;27.400;2023-05-27T08:07:29;3.97;;;3.30;;
38302;SDS011;24103;42.454;27.400;2023-05-27T08:09:55;3.67;;;3.35;;
38302;SDS011;24103;42.454;27.400;2023-05-27T08:12:20;3.55;;;3.25;;
38302;SDS011;24103;42.454;27.400;2023-05-27T08:14:46;4.25;;;3.80;;
38302;SDS011;24103;42.454;27.400;2023-05-27T08:17:12;4.10;;;3.13;;
38302;SDS011;24103;42.454;27.400;2023-05-27T08:19:38;8.32;;;4.35;;
38302;SDS011;24103;42.454;27.400;2023-05-27T08:22:03;4.30;;;3.90;;
38302;SDS011;24103;42.454;27.400;2023-05-27T08:24:33;3.30;;;2.90;;
38302;SDS011;24103;42.454;27.400;2023-05-27T08:26:59;3.72;;;3.40;;
38302;SDS011;24103;42.454;27.400;2023-05-27T08:29:25;4.57;;;3.45;;
38302;SDS011;24103;42.454;27.400;2023-05-27T08:31:52;4.03;;;3.20;;
38302;SDS011;24103;42.454;27.400;2023-05-27T08:34:18;4.10;;;3.63;;
38302;SDS011;24103;42.454;27.400;2023-05-27T08:36:44;6.60;;;4.28;;
38302;SDS011;24103;42.454;27.400;2023-05-27T08:39:09;5.13;;;3.40;;
38302;SDS011;24103;42.454;27.400;2023-05-27T08:41:35;5.03;;;3.30;;
38302;SDS011;24103;42.454;27.400;2023-05-27T08:44:02;3.15;;;2.85;;
38302;SDS011;24103;42.454;27.400;2023-05-27T08:46:28;6.20;;;3.90;;
38302;SDS011;24103;42.454;27.400;2023-05-27T08:48:55;4.80;;;4.13;;
38302;SDS011;24103;42.454;27.400;2023-05-27T08:51:20;6.40;;;3.50;;
38302;SDS011;24103;42.454;27.400;2023-05-27T08:53:46;3.80;;;3.25;;
38302;SDS011;24103;42.454;27.400;2023-05-27T08:56:14;6.30;;;3.33;;
38302;SDS011;24103;42.454;27.400;2023-05-27T08:58:41;4.30;;;3.28;;
38302;SDS011;24103;42.454;27.400;2023-05-27T09:01:07;4.03;;;3.05;;
38302;SDS011;24103;42.454;27.400;2023-05-27T09:03:33;4.00;;;3.50;;
38302;SDS011;24103;42.454;27.400;2023-05-27T09:05:58;4.18;;;3.65;;
38302;SDS011;24103;42.454;27.400;2023-05-27T09:08:28;3.65;;;3.30;;
38302;SDS011;24103;42.454;27.400;2023-05-27T09:10:54;5.53;;;3.70;;
38302;SDS011;24103;42.454;27.400;2023-05-27T09:13:27;5.18;;;4.10;;
38302;SDS011;24103;42.454;27.400;2023-05-27T09:16:00;3.28;;;2.97;;
38302;SDS011;24103;42.454;27.400;2023-05-27T09:18:31;4.30;;;3.85;;
38302;SDS011;24103;42.454;27.400;2023-05-27T09:20:57;3.70;;;3.20;;
38302;SDS011;24103;42.454;27.400;2023-05-27T09:23:23;4.93;;;3.45;;
38302;SDS011;24103;42.454;27.400;2023-05-27T09:25:50;3.50;;;3.10;;
38302;SDS011;24103;42.454;27.400;2023-05-27T09:28:20;4.20;;;3.75;;
38302;SDS011;24103;42.454;27.400;2023-05-27T09:31:01;7.15;;;3.75;;
38302;SDS011;24103;42.454;27.400;2023-05-27T09:33:30;3.42;;;3.13;;
38302;SDS011;24103;42.454;27.400;2023-05-27T09:35:57;5.88;;;3.40;;
38302;SDS011;24103;42.454;27.400;2023-05-27T09:38:24;4.10;;;3.13;;
38302;SDS011;24103;42.454;27.400;2023-05-27T09:40:52;3.83;;;3.42;;
38302;SDS011;24103;42.454;27.400;2023-05-27T09:43:18;3.75;;;3.20;;
38302;SDS011;24103;42.454;27.400;2023-05-27T09:45:44;3.42;;;3.13;;
38302;SDS011;24103;42.454;27.400;2023-05-27T09:48:11;4.50;;;3.60;;
38302;SDS011;24103;42.454;27.400;2023-05-27T09:50:40;5.18;;;3.65;;
38302;SDS011;24103;42.454;27.400;2023-05-27T09:53:06;6.88;;;3.63;;
38302;SDS011;24103;42.454;27.400;2023-05-27T09:55:32;4.55;;;3.88;;
38302;SDS011;24103;42.454;27.400;2023-05-27T09:57:58;4.75;;;3.65;;
38302;SDS011;24103;42.454;27.400;2023-05-27T10:00:26;3.80;;;3.42;;
38302;SDS011;24103;42.454;27.400;2023-05-27T10:02:52;5.63;;;3.95;;
38302;SDS011;24103;42.454;27.400;2023-05-27T10:05:18;9.40;;;3.78;;
38302;SDS011;24103;42.454;27.400;2023-05-27T10:07:45;8.15;;;4.07;;
38302;SDS011;24103;42.454;27.400;2023-05-27T10:10:12;4.28;;;3.92;;
38302;SDS011;24103;42.454;27.400;2023-05-27T10:12:42;3.30;;;2.85;;
38302;SDS011;24103;42.454;27.400;2023-05-27T10:15:08;4.50;;;3.17;;
38302;SDS011;24103;42.454;27.400;2023-05-27T10:17:41;4.13;;;3.30;;
38302;SDS011;24103;42.454;27.400;2023-05-27T10:20:32;4.60;;;4.05;;
38302;SDS011;24103;42.454;27.400;2023-05-27T10:25:37;6.38;;;3.30;;
38302;SDS011;24103;42.454;27.400;2023-05-27T10:28:04;6.35;;;3.30;;
38302;SDS011;24103;42.454;27.400;2023-05-27T10:30:30;4.00;;;3.65;;
38302;SDS011;24103;42.454;27.400;2023-05-27T10:33:08;5.38;;;4.57;;
38302;SDS011;24103;42.454;27.400;2023-05-27T10:35:41;7.13;;;3.97;;
38302;SDS011;24103;42.454;27.400;2023-05-27T10:38:17;5.47;;;3.72;;
38302;SDS011;24103;42.454;27.400;2023-05-27T10:40:46;6.43;;;4.32;;
38302;SDS011;24103;42.454;27.400;2023-05-27T10:43:15;4.13;;;3.78;;
38302;SDS011;24103;42.454;27.400;2023-05-27T10:45:42;4.13;;;3.35;;
38302;SDS011;24103;42.454;27.400;2023-05-27T10:48:20;6.88;;;3.60;;
38302;SDS011;24103;42.454;27.400;2023-05-27T10:50:53;3.72;;;3.42;;
38302;SDS011;24103;42.454;27.400;2023-05-27T10:53:21;5.50;;;3.53;;
38302;SDS011;24103;42.454;27.400;2023-05-27T10:55:47;7.75;;;4.68;;
38302;SDS011;24103;42.454;27.400;2023-05-27T10:58:15;5.38;;;3.42;;
38302;SDS011;24103;42.454;27.400;2023-05-27T11:00:42;4.15;;;3.70;;
38302;SDS011;24103;42.454;27.400;2023-05-27T11:03:20;4.85;;;3.38;;
38302;SDS011;24103;42.454;27.400;2023-05-27T11:06:00;6.13;;;4.20;;
38302;SDS011;24103;42.454;27.400;2023-05-27T11:08:30;3.78;;;3.45;;
38302;SDS011;24103;42.454;27.400;2023-05-27T11:11:30;3.25;;;2.92;;
38302;SDS011;24103;42.454;27.400;2023-05-27T11:13:48;8.63;;;3.85;;
38302;SDS011;24103;42.454;27.400;2023-05-27T11:16:14;7.97;;;3.42;;
38302;SDS011;24103;42.454;27.400;2023-05-27T11:21:13;7.68;;;4.32;;
38302;SDS011;24103;42.454;27.400;2023-05-27T11:23:44;3.70;;;3.40;;
38302;SDS011;24103;42.454;27.400;2023-05-27T11:28:46;4.47;;;4.05;;
38302;SDS011;24103;42.454;27.400;2023-05-27T11:31:13;6.88;;;3.92;;
38302;SDS011;24103;42.454;27.400;2023-05-27T11:33:43;7.70;;;3.78;;
38302;SDS011;24103;42.454;27.400;2023-05-27T11:36:13;5.88;;;4.00;;
38302;SDS011;24103;42.454;27.400;2023-05-27T11:38:50;5.05;;;3.72;;
38302;SDS011;24103;42.454;27.400;2023-05-27T11:41:19;5.00;;;3.65;;
38302;SDS011;24103;42.454;27.400;2023-05-27T11:46:20;8.07;;;4.60;;
38302;SDS011;24103;42.454;27.400;2023-05-27T11:48:46;10.00;;;4.10;;
38302;SDS011;24103;42.454;27.400;2023-05-27T11:51:12;9.98;;;5.47;;
38302;SDS011;24103;42.454;27.400;2023-05-27T11:53:38;14.70;;;5.78;;
38302;SDS011;24103;42.454;27.400;2023-05-27T11:56:05;13.07;;;6.88;;
38302;SDS011;24103;42.454;27.400;2023-05-27T11:58:31;18.50;;;7.43;;
38302;SDS011;24103;42.454;27.400;2023-05-27T12:00:56;15.18;;;6.82;;
38302;SDS011;24103;42.454;27.400;2023-05-27T12:03:22;13.35;;;6.22;;
38302;SDS011;24103;42.454;27.400;2023-05-27T12:05:47;9.43;;;5.13;;
38302;SDS011;24103;42.454;27.400;2023-05-27T12:08:13;9.95;;;6.88;;
38302;SDS011;24103;42.454;27.400;2023-05-27T12:10:38;11.02;;;5.78;;
38302;SDS011;24103;42.454;27.400;2023-05-27T12:13:04;8.02;;;5.50;;
38302;SDS011;24103;42.454;27.400;2023-05-27T12:15:30;9.07;;;5.95;;
38302;SDS011;24103;42.454;27.400;2023-05-27T12:17:57;15.98;;;8.95;;
38302;SDS011;24103;42.454;27.400;2023-05-27T12:20:22;11.70;;;8.50;;
38302;SDS011;24103;42.454;27.400;2023-05-27T12:22:52;11.43;;;6.93;;
38302;SDS011;24103;42.454;27.400;2023-05-27T12:25:18;9.52;;;7.68;;
38302;SDS011;24103;42.454;27.400;2023-05-27T12:27:44;13.05;;;11.10;;
38302;SDS011;24103;42.454;27.400;2023-05-27T12:30:10;15.43;;;12.13;;
38302;SDS011;24103;42.454;27.400;2023-05-27T12:32:37;12.80;;;11.35;;
38302;SDS011;24103;42.454;27.400;2023-05-27T12:35:03;28.23;;;21.77;;
38302;SDS011;24103;42.454;27.400;2023-05-27T12:37:30;15.27;;;12.93;;
38302;SDS011;24103;42.454;27.400;2023-05-27T12:39:55;25.42;;;21.65;;
38302;SDS011;24103;42.454;27.400;2023-05-27T12:42:21;27.23;;;20.80;;
38302;SDS011;24103;42.454;27.400;2023-05-27T12:44:47;32.88;;;26.75;;
38302;SDS011;24103;42.454;27.400;2023-05-27T12:47:13;23.50;;;16.88;;
38302;SDS011;24103;42.454;27.400;2023-05-27T12:49:38;29.98;;;25.05;;
38302;SDS011;24103;42.454;27.400;2023-05-27T12:52:04;29.13;;;23.65;;
38302;SDS011;24103;42.454;27.400;2023-05-27T12:54:30;28.80;;;23.92;;
38302;SDS011;24103;42.454;27.400;2023-05-27T12:56:55;30.20;;;24.35;;
38302;SDS011;24103;42.454;27.400;2023-05-27T12:59:21;30.02;;;26.92;;
38302;SDS011;24103;42.454;27.400;2023-05-27T13:01:46;27.48;;;24.55;;
38302;SDS011;24103;42.454;27.400;2023-05-27T13:04:12;25.30;;;21.15;;
38302;SDS011;24103;42.454;27.400;2023-05-27T13:06:37;21.92;;;18.15;;
38302;SDS011;24103;42.454;27.400;2023-05-27T13:09:06;17.83;;;16.13;;
38302;SDS011;24103;42.454;27.400;2023-05-27T13:11:33;18.42;;;16.13;;
38302;SDS011;24103;42.454;27.400;2023-05-27T13:13:59;19.58;;;16.83;;
38302;SDS011;24103;42.454;27.400;2023-05-27T13:16:25;13.90;;;12.50;;
38302;SDS011;24103;42.454;27.400;2023-05-27T13:18:50;11.80;;;10.70;;
38302;SDS011;24103;42.454;27.400;2023-05-27T13:21:16;9.90;;;8.95;;
38302;SDS011;24103;42.454;27.400;2023-05-27T13:23:41;8.73;;;7.93;;
38302;SDS011;24103;42.454;27.400;2023-05-27T13:26:07;8.13;;;7.00;;
38302;SDS011;24103;42.454;27.400;2023-05-27T13:28:32;16.33;;;8.27;;
38302;SDS011;24103;42.454;27.400;2023-05-27T13:30:58;8.15;;;6.72;;
38302;SDS011;24103;42.454;27.400;2023-05-27T13:33:23;7.95;;;6.63;;
38302;SDS011;24103;42.454;27.400;2023-05-27T13:35:49;8.13;;;6.47;;
38302;SDS011;24103;42.454;27.400;2023-05-27T13:38:14;7.93;;;7.13;;
38302;SDS011;24103;42.454;27.400;2023-05-27T13:40:41;7.82;;;6.97;;
38302;SDS011;24103;42.454;27.400;2023-05-27T13:43:07;7.82;;;7.03;;
38302;SDS011;24103;42.454;27.400;2023-05-27T13:45:32;8.02;;;5.75;;
38302;SDS011;24103;42.454;27.400;2023-05-27T13:47:58;6.85;;;6.25;;
38302;SDS011;24103;42.454;27.400;2023-05-27T13:50:23;6.30;;;5.70;;
38302;SDS011;24103;42.454;27.400;2023-05-27T13:52:49;7.10;;;5.30;;
38302;SDS011;24103;42.454;27.400;2023-05-27T13:55:14;7.07;;;6.38;;
38302;SDS011;24103;42.454;27.400;2023-05-27T13:57:40;5.65;;;5.03;;
38302;SDS011;24103;42.454;27.400;2023-05-27T14:00:05;6.25;;;5.60;;
38302;SDS011;24103;42.454;27.400;2023-05-27T14:02:31;9.00;;;8.10;;
38302;SDS011;24103;42.454;27.400;2023-05-27T14:04:57;7.50;;;6.70;;
38302;SDS011;24103;42.454;27.400;2023-05-27T14:07:22;7.18;;;5.72;;
38302;SDS011;24103;42.454;27.400;2023-05-27T14:09:48;6.90;;;5.60;;
38302;SDS011;24103;42.454;27.400;2023-05-27T14:12:14;8.55;;;6.07;;
38302;SDS011;24103;42.454;27.400;2023-05-27T14:14:39;6.40;;;5.68;;
38302;SDS011;24103;42.454;27.400;2023-05-27T14:17:06;9.98;;;4.25;;
38302;SDS011;24103;42.454;27.400;2023-05-27T14:19:33;5.63;;;5.15;;
38302;SDS011;24103;42.454;27.400;2023-05-27T14:21:59;5.20;;;4.70;;
38302;SDS011;24103;42.454;27.400;2023-05-27T14:24:24;5.10;;;4.65;;
38302;SDS011;24103;42.454;27.400;2023-05-27T14:26:50;4.60;;;4.20;;
38302;SDS011;24103;42.454;27.400;2023-05-27T14:29:16;6.63;;;5.00;;
38302;SDS011;24103;42.454;27.400;2023-05-27T14:31:41;5.47;;;5.07;;
38302;SDS011;24103;42.454;27.400;2023-05-27T14:34:07;7.40;;;5.82;;
38302;SDS011;24103;42.454;27.400;2023-05-27T14:36:32;5.50;;;5.07;;
38302;SDS011;24103;42.454;27.400;2023-05-27T14:38:58;6.47;;;4.95;;
38302;SDS011;24103;42.454;27.400;2023-05-27T14:41:28;9.35;;;6.60;;
38302;SDS011;24103;42.454;27.400;2023-05-27T14:43:53;7.80;;;5.93;;
38302;SDS011;24103;42.454;27.400;2023-05-27T14:46:19;8.18;;;6.50;;
38302;SDS011;24103;42.454;27.400;2023-05-27T14:48:45;7.22;;;6.45;;
38302;SDS011;24103;42.454;27.400;2023-05-27T14:51:11;8.30;;;6.53;;
38302;SDS011;24103;42.454;27.400;2023-05-27T14:53:37;6.30;;;5.70;;
38302;SDS011;24103;42.454;27.400;2023-05-27T14:56:02;6.22;;;5.68;;
38302;SDS011;24103;42.454;27.400;2023-05-27T14:58:28;6.70;;;5.97;;
38302;SDS011;24103;42.454;27.400;2023-05-27T15:00:54;7.45;;;6.25;;
38302;SDS011;24103;42.454;27.400;2023-05-27T15:03:19;7.88;;;7.10;;
38302;SDS011;24103;42.454;27.400;2023-05-27T15:05:45;7.25;;;6.55;;
38302;SDS011;24103;42.454;27.400;2023-05-27T15:08:10;6.35;;;5.75;;
38302;SDS011;24103;42.454;27.400;2023-05-27T15:10:41;7.10;;;6.50;;
38302;SDS011;24103;42.454;27.400;2023-05-27T15:13:09;7.03;;;6.32;;
38302;SDS011;24103;42.454;27.400;2023-05-27T15:15:36;7.07;;;6.50;;
38302;SDS011;24103;42.454;27.400;2023-05-27T15:18:04;8.00;;;7.20;;
38302;SDS011;24103;42.454;27.400;2023-05-27T15:20:31;8.05;;;6.70;;
38302;SDS011;24103;42.454;27.400;2023-05-27T15:22:56;7.47;;;6.78;;
38302;SDS011;24103;42.454;27.400;2023-05-27T15:25:22;6.97;;;6.43;;
38302;SDS011;24103;42.454;27.400;2023-05-27T15:27:48;6.80;;;6.25;;
38302;SDS011;24103;42.454;27.400;2023-05-27T15:30:13;8.45;;;7.43;;
38302;SDS011;24103;42.454;27.400;2023-05-27T15:32:39;8.80;;;7.95;;
38302;SDS011;24103;42.454;27.400;2023-05-27T15:35:05;7.82;;;7.13;;
38302;SDS011;24103;42.454;27.400;2023-05-27T15:37:31;8.68;;;7.85;;
38302;SDS011;24103;42.454;27.400;2023-05-27T15:39:56;9.10;;;6.25;;
38302;SDS011;24103;42.454;27.400;2023-05-27T15:42:22;11.82;;;7.70;;
38302;SDS011;24103;42.454;27.400;2023-05-27T15:44:47;9.23;;;6.95;;
38302;SDS011;24103;42.454;27.400;2023-05-27T15:47:13;15.95;;;6.85;;
38302;SDS011;24103;42.454;27.400;2023-05-27T15:49:38;9.20;;;6.22;;
38302;SDS011;24103;42.454;27.400;2023-05-27T15:52:04;8.32;;;6.35;;